This is the latest recevied weather packets stored in our database for station/object KB5SMY. If no packets are shown the sender has not sent any weather packets the latest 10 day(s).
| Time | Temp. | Humidity | Pressure | Rain* | Wind** | Luminosity | Snow |
|---|---|---|---|---|---|---|---|
| 1777943404 | 25.56° C | 63% | 1005.3 hPa | 0 mm | - | 0 W/m² | - |
| 1777942804 | 26.11° C | 62% | 1005.2 hPa | 0 mm | - | 9 W/m² | - |
| 1777939332 | 26.67° C | 59% | 1005.7 hPa | 0 mm | - | 100 W/m² | - |
| 1777935604 | 27.22° C | 58% | 1006.2 hPa | 0 mm | - | 334 W/m² | - |
| 1777933804 | 27.78° C | 55% | 1006.3 hPa | 0 mm | - | 476 W/m² | - |
| 1777929004 | 27.78° C | 56% | 1007.3 hPa | 0 mm | - | 744 W/m² | - |
| 1777928404 | 28.33° C | 54% | 1007.5 hPa | 0 mm | - | 745 W/m² | - |
| 1777925405 | 28.33° C | 55% | 1008.2 hPa | 0 mm | - | 881 W/m² | - |
| 1777920604 | 27.22° C | 59% | 1009.5 hPa | 0 mm | - | 1013 W/m² | - |
| 1777916405 | 25.56° C | 59% | 1010.6 hPa | 0 mm | - | 988 W/m² | - |
| 1777909804 | 22.78° C | 64% | 1012.4 hPa | 0 mm | - | 696 W/m² | - |
| 1777907404 | 21.67° C | 64% | 1012.4 hPa | 0 mm | - | 552 W/m² | - |
| 1777905604 | 20.56° C | 70% | 1012.8 hPa | 0 mm | - | 439 W/m² | - |
| 1777900804 | 16.67° C | 80% | 1012.8 hPa | 0 mm | - | 213 W/m² | - |
| 1777899004 | 15.56° C | 82% | 1012.9 hPa | 0 mm | - | 93 W/m² | - |
| 1777897204 | 15° C | 82% | 1012.7 hPa | 0 mm | - | 35 W/m² | - |
| 1777892404 | 15° C | 78% | 1012.6 hPa | 0 mm | - | 0 W/m² | - |
| 1777883531 | 15.56° C | 69% | 1013.6 hPa | 0 mm | - | 0 W/m² | - |
| 1777879804 | 16.11° C | 68% | 1014 hPa | 0 mm | - | 0 W/m² | - |
| 1777875604 | 16.67° C | 65% | 1014.6 hPa | 0 mm | - | 0 W/m² | - |
| 1777874404 | 17.22° C | 64% | 1014.6 hPa | 0 mm | - | 0 W/m² | - |
| 1777872604 | 17.22° C | 62% | 1015 hPa | 0 mm | - | 0 W/m² | - |
| 1777870331 | 17.78° C | 60% | 1015.5 hPa | 0 mm | - | 0 W/m² | - |
| 1777852204 | 26.11° C | 30% | 1015.3 hPa | 0 mm | - | 128 W/m² | - |
| 1777851604 | 26.11° C | 31% | 1015.4 hPa | 0 mm | - | 153 W/m² | - |
* Rain latest hour (hover to see other rain measurements)
** Current wind speed in m/s (hover to see current wind gust speed)